Time;durP1;ratioP1;P1;durP2;ratioP2;P2;SDS_P1;SDS_P2;PMS_P1;PMS_P2;Temp;Humidity;BMP_temperature;BMP_pressure;BME280_temperature;BME280_humidity;BME280_pressure;Samples;Min_cycle;Max_cycle;Signal;HPM_P1;HPM_P2
2022/07/15 00:01:10;;;;;;;1.77;1.58;;;;;;;20.70;60.54;98379.25;4485520;32;20835;-71
2022/07/15 00:03:38;;;;;;;4.45;1.30;;;;;;;20.83;60.33;98417.50;4484246;32;20108;-71
2022/07/15 00:06:05;;;;;;;3.42;1.40;;;;;;;20.86;60.38;98435.72;4485463;32;20154;-71
2022/07/15 00:08:32;;;;;;;1.58;1.48;;;;;;;20.99;59.91;98426.84;4485577;31;20111;-71
2022/07/15 00:11:00;;;;;;;3.25;1.40;;;;;;;21.13;59.44;98400.94;4485658;32;20453;-71
2022/07/15 00:13:27;;;;;;;4.57;1.48;;;;;;;21.19;59.14;98392.91;4485153;31;20509;-71
2022/07/15 00:15:54;;;;;;;2.08;1.77;;;;;;;21.20;59.21;98383.91;4484848;32;20118;-71
2022/07/15 00:18:22;;;;;;;3.05;1.75;;;;;;;21.22;59.21;98402.31;4485883;32;20093;-71
2022/07/15 00:20:49;;;;;;;7.20;2.22;;;;;;;21.23;59.37;98404.78;4485296;32;20068;-71
2022/07/15 00:23:16;;;;;;;8.27;1.75;;;;;;;21.40;59.32;98399.72;4485329;32;20104;-71
2022/07/15 00:25:43;;;;;;;4.47;1.80;;;;;;;21.51;59.12;98384.09;4485553;32;20083;-71
2022/07/15 00:28:11;;;;;;;3.08;1.80;;;;;;;21.54;58.97;98370.34;4485742;32;20514;-71
2022/07/15 00:30:40;;;;;;;2.47;1.62;;;;;;;21.53;59.03;98369.53;4485351;31;20097;-71
2022/07/15 00:33:09;;;;;;;2.90;2.50;;;;;;;21.53;59.33;98371.38;4485472;31;20525;-71
2022/07/15 00:35:37;;;;;;;4.30;1.73;;;;;;;21.57;59.32;98364.56;4485449;31;20096;-71
2022/07/15 00:38:07;;;;;;;2.15;1.70;;;;;;;21.56;59.54;98361.09;4485335;31;20172;-71
2022/07/15 00:40:46;;;;;;;4.32;1.73;;;;;;;21.61;59.45;98371.13;4485523;31;20429;-71
2022/07/15 00:43:17;;;;;;;4.28;1.80;;;;;;;21.59;59.48;98360.66;4485480;31;20076;-71
2022/07/15 00:45:45;;;;;;;1.60;1.50;;;;;;;21.59;59.72;98354.50;4485249;31;20449;-71
2022/07/15 00:48:12;;;;;;;2.80;1.75;;;;;;;21.59;59.96;98349.16;4485602;31;20157;-71
2022/07/15 00:50:47;;;;;;;4.03;1.70;;;;;;;21.58;60.08;98345.69;4485325;31;20133;-71
2022/07/15 00:53:18;;;;;;;4.75;2.00;;;;;;;21.63;60.15;98345.03;4485163;31;20111;-71
2022/07/15 00:55:47;;;;;;;4.40;1.87;;;;;;;21.67;60.03;98350.78;4485591;32;20088;-71
2022/07/15 00:58:18;;;;;;;4.85;1.83;;;;;;;21.76;59.66;98350.25;4485131;31;20118;-71
2022/07/15 01:00:47;;;;;;;2.67;1.50;;;;;;;21.69;59.55;98362.81;4485502;31;20116;-71
2022/07/15 01:03:17;;;;;;;2.87;2.10;;;;;;;21.65;59.70;98368.81;4485275;31;20145;-71
2022/07/15 01:05:46;;;;;;;3.95;1.83;;;;;;;21.70;59.75;98375.13;4484960;31;20088;-71
2022/07/15 01:08:14;;;;;;;2.40;2.10;;;;;;;21.78;59.57;98393.50;4485257;31;20160;-71
2022/07/15 01:10:42;;;;;;;2.28;1.70;;;;;;;21.83;59.40;98397.38;4485126;31;20088;-71
2022/07/15 01:13:09;;;;;;;2.35;1.90;;;;;;;21.78;59.53;98401.50;4485254;31;20115;-71
2022/07/15 01:15:36;;;;;;;5.28;1.98;;;;;;;21.80;59.46;98390.63;4484693;32;20702;-71
2022/07/15 01:18:06;;;;;;;5.15;1.92;;;;;;;21.70;59.70;98399.13;4485370;32;20118;-71
2022/07/15 01:20:33;;;;;;;8.70;1.90;;;;;;;21.51;60.33;98410.75;4485061;32;20161;-71
2022/07/15 01:23:01;;;;;;;3.83;1.87;;;;;;;21.43;60.55;98404.62;4484985;32;20450;-71
2022/07/15 01:25:29;;;;;;;4.22;1.77;;;;;;;21.38;60.73;98417.78;4484810;31;20088;-71
2022/07/15 01:27:57;;;;;;;7.18;2.28;;;;;;;21.37;60.65;98421.47;4483951;32;20171;-71
2022/07/15 01:30:24;;;;;;;6.55;1.92;;;;;;;21.36;60.65;98425.19;4485248;32;20514;-71
2022/07/15 01:32:52;;;;;;;5.50;2.10;;;;;;;21.42;60.40;98413.69;4484978;31;20119;-71
2022/07/15 01:35:19;;;;;;;3.20;1.70;;;;;;;21.37;60.57;98420.69;4483635;32;20100;-71
2022/07/15 01:37:47;;;;;;;4.40;1.92;;;;;;;21.25;61.08;98407.22;4485024;31;20092;-71
2022/07/15 01:40:15;;;;;;;2.92;2.10;;;;;;;21.22;61.65;98397.00;4485083;32;20146;-71
2022/07/15 01:42:43;;;;;;;7.05;2.50;;;;;;;21.20;62.09;98399.87;4485054;32;20161;-71
2022/07/15 01:45:12;;;;;;;4.35;2.42;;;;;;;21.31;62.53;98392.22;4484730;31;20754;-71
2022/07/15 01:47:57;;;;;;;5.65;2.25;;;;;;;21.33;62.83;98385.63;4485144;31;20089;-71
2022/07/15 01:50:26;;;;;;;3.03;2.10;;;;;;;21.33;63.32;98385.63;4485030;32;20498;-71
2022/07/15 01:52:54;;;;;;;6.47;2.25;;;;;;;21.39;63.60;98379.47;4484917;32;20115;-71
2022/07/15 01:55:22;;;;;;;3.08;2.28;;;;;;;21.42;63.63;98378.19;4483796;32;20104;-71
2022/07/15 01:57:49;;;;;;;7.32;2.40;;;;;;;21.42;63.92;98371.03;4484646;32;20167;-71
2022/07/15 02:00:17;;;;;;;5.93;1.95;;;;;;;21.56;63.71;98386.94;4484830;31;20402;-71
2022/07/15 02:02:45;;;;;;;3.90;2.03;;;;;;;21.71;63.32;98397.25;4484830;31;20145;-71
2022/07/15 02:05:12;;;;;;;7.80;2.28;;;;;;;21.73;63.11;98401.34;4484725;32;20118;-71
2022/07/15 02:07:40;;;;;;;2.37;2.15;;;;;;;21.73;63.17;98397.88;4484729;32;20092;-71
2022/07/15 02:10:09;;;;;;;4.93;2.12;;;;;;;21.69;63.28;98384.16;4484677;32;20111;-71
2022/07/15 02:12:36;;;;;;;3.67;1.90;;;;;;;21.61;63.48;98379.91;4484689;32;20120;-71
2022/07/15 02:15:05;;;;;;;1.75;1.58;;;;;;;21.64;62.87;98375.19;4484429;31;20499;-71
2022/07/15 02:17:33;;;;;;;5.05;1.70;;;;;;;21.76;61.90;98378.78;4484667;31;20468;-71
2022/07/15 02:20:00;;;;;;;3.08;1.70;;;;;;;21.79;61.72;98400.47;4484469;32;20093;-71
2022/07/15 02:22:28;;;;;;;2.70;1.48;;;;;;;21.85;61.17;98405.97;4484338;31;20096;-71
2022/07/15 02:24:57;;;;;;;6.25;2.03;;;;;;;21.87;60.80;98409.25;4484236;31;20084;-71
2022/07/15 02:27:24;;;;;;;4.03;1.60;;;;;;;21.93;59.98;98424.38;4484238;31;20565;-71
2022/07/15 02:29:51;;;;;;;3.25;1.73;;;;;;;21.95;59.72;98447.13;4484135;32;20166;-71
2022/07/15 02:32:19;;;;;;;2.55;1.67;;;;;;;21.94;59.56;98468.69;4484584;32;20165;-71
2022/07/15 02:34:46;;;;;;;1.80;1.50;;;;;;;21.97;58.25;98484.25;4483992;32;20118;-71
2022/07/15 02:37:13;;;;;;;4.20;1.98;;;;;;;21.98;57.57;98491.19;4484770;31;20096;-71
2022/07/15 02:39:41;;;;;;;5.45;1.50;;;;;;;22.05;57.74;98499.16;4486131;31;20092;-71
2022/07/15 02:42:08;;;;;;;2.37;1.83;;;;;;;22.06;58.86;98501.59;4486144;32;20458;-71
2022/07/15 02:44:36;;;;;;;1.70;1.50;;;;;;;21.94;59.23;98490.00;4486143;31;20084;-71
2022/07/15 02:47:04;;;;;;;1.87;1.40;;;;;;;21.92;59.08;98498.25;4486390;31;20097;-71
2022/07/15 02:49:31;;;;;;;4.62;1.50;;;;;;;21.88;58.74;98494.38;4486479;31;20156;-71
2022/07/15 02:51:59;;;;;;;5.50;1.40;;;;;;;21.89;58.79;98495.16;4486187;32;20123;-71
2022/07/15 02:54:27;;;;;;;2.55;1.37;;;;;;;21.78;58.81;98491.34;4486384;31;20555;-71
2022/07/15 02:56:54;;;;;;;4.30;1.27;;;;;;;21.82;58.37;98491.72;4486085;32;20518;-71
2022/07/15 02:59:21;;;;;;;2.35;1.40;;;;;;;21.77;58.79;98495.03;4486352;32;20208;-71
2022/07/15 03:01:51;;;;;;;1.55;1.20;;;;;;;21.69;59.20;98488.12;4486240;31;20644;-71
2022/07/15 03:04:21;;;;;;;1.77;1.45;;;;;;;21.75;58.02;98487.25;4486342;32;20147;-71
2022/07/15 03:06:48;;;;;;;4.18;1.50;;;;;;;21.74;58.15;98493.66;4485930;32;20100;-71
2022/07/15 03:09:15;;;;;;;1.85;1.27;;;;;;;21.72;58.01;98493.03;4486296;32;20105;-71
2022/07/15 03:11:42;;;;;;;1.27;1.17;;;;;;;21.72;57.82;98479.69;4486285;32;20107;-71
2022/07/15 03:14:10;;;;;;;2.90;1.42;;;;;;;21.67;57.63;98476.87;4485957;32;20096;-71
2022/07/15 03:16:41;;;;;;;2.28;1.20;;;;;;;21.73;56.79;98485.88;4486047;31;20085;-71
2022/07/15 03:19:09;;;;;;;6.37;1.73;;;;;;;21.78;56.61;98494.81;4486022;31;20119;-71
2022/07/15 03:21:36;;;;;;;4.30;1.15;;;;;;;21.77;56.59;98500.37;4486085;32;20108;-71
2022/07/15 03:24:03;;;;;;;2.55;1.30;;;;;;;21.78;55.88;98497.50;4485995;32;20088;-71
2022/07/15 03:26:31;;;;;;;5.20;1.20;;;;;;;21.88;55.51;98501.56;4486098;31;20092;-71
2022/07/15 03:29:00;;;;;;;1.20;1.10;;;;;;;21.88;55.13;98501.56;4485970;31;20077;-71
2022/07/15 03:31:28;;;;;;;1.37;1.00;;;;;;;21.91;55.05;98506.44;4486085;31;20137;-71
2022/07/15 03:33:55;;;;;;;5.10;1.65;;;;;;;21.90;54.92;98499.47;4486397;31;20469;-71
2022/07/15 03:36:24;;;;;;;1.40;1.10;;;;;;;21.95;54.54;98503.12;4486069;31;20084;-71
2022/07/15 03:38:52;;;;;;;1.75;0.88;;;;;;;21.97;54.56;98501.06;4485982;31;20097;-71
2022/07/15 03:41:20;;;;;;;1.65;1.25;;;;;;;21.94;54.61;98500.69;4485737;31;20092;-71
2022/07/15 03:43:47;;;;;;;1.50;0.98;;;;;;;21.88;54.87;98497.03;4484670;32;20108;-71
2022/07/15 03:46:15;;;;;;;4.15;1.20;;;;;;;21.88;54.89;98497.03;4485800;32;20127;-71
2022/07/15 03:48:43;;;;;;;4.62;1.23;;;;;;;21.85;54.98;98510.78;4485792;31;20105;-71
2022/07/15 03:51:10;;;;;;;3.25;0.90;;;;;;;21.79;55.18;98499.13;4486060;31;20476;-71
2022/07/15 03:53:38;;;;;;;3.42;1.10;;;;;;;21.78;55.00;98507.34;4485776;31;20096;-71
2022/07/15 03:56:05;;;;;;;4.50;1.55;;;;;;;21.73;55.31;98531.19;4485879;31;20588;-71
2022/07/15 03:58:33;;;;;;;1.83;1.20;;;;;;;21.65;55.53;98540.28;4485701;31;20076;-71
2022/07/15 04:01:00;;;;;;;1.23;1.00;;;;;;;21.55;56.01;98535.38;4485562;31;20100;-71
2022/07/15 04:03:28;;;;;;;3.72;1.17;;;;;;;21.52;56.14;98524.34;4485608;31;20103;-71
2022/07/15 04:05:55;;;;;;;1.65;0.90;;;;;;;21.48;56.26;98523.09;4485569;31;20374;-71
2022/07/15 04:08:22;;;;;;;3.08;1.50;;;;;;;21.48;56.33;98521.25;4485490;31;20088;-71
2022/07/15 04:10:50;;;;;;;3.25;0.90;;;;;;;21.46;56.29;98518.00;4485960;32;20484;-71
2022/07/15 04:13:18;;;;;;;0.77;0.77;;;;;;;21.43;56.37;98524.56;4485787;31;20103;-71
2022/07/15 04:15:46;;;;;;;1.87;0.85;;;;;;;21.47;56.27;98516.13;4485392;31;20532;-71
2022/07/15 04:18:14;;;;;;;1.25;1.00;;;;;;;21.38;56.56;98519.06;4485510;32;20093;-71
2022/07/15 04:20:41;;;;;;;5.12;0.98;;;;;;;21.40;56.57;98514.31;4475901;31;20130;-71
2022/07/15 04:23:08;;;;;;;1.17;0.98;;;;;;;21.36;56.68;98529.13;4485129;31;20119;-71
2022/07/15 04:25:36;;;;;;;1.77;0.90;;;;;;;21.39;56.70;98536.69;4485426;32;20148;-71
2022/07/15 04:28:03;;;;;;;1.15;0.77;;;;;;;21.36;56.94;98546.94;4485499;31;20168;-71
2022/07/15 04:30:31;;;;;;;1.70;1.00;;;;;;;21.34;57.11;98539.16;4485592;31;20486;-71
2022/07/15 04:32:58;;;;;;;2.33;1.27;;;;;;;21.33;57.43;98542.03;4485670;31;20092;-71
2022/07/15 04:35:26;;;;;;;1.77;0.70;;;;;;;21.34;57.60;98536.50;4485631;32;20517;-71
2022/07/15 04:37:54;;;;;;;1.10;1.00;;;;;;;21.36;57.75;98542.44;4485408;31;20092;-71
2022/07/15 04:40:21;;;;;;;1.27;0.80;;;;;;;21.28;58.14;98540.00;4485558;32;20092;-71
2022/07/15 04:42:50;;;;;;;2.87;0.90;;;;;;;21.26;58.45;98556.22;4485318;32;20427;-71
2022/07/15 04:45:18;;;;;;;1.92;0.77;;;;;;;21.22;58.86;98544.34;4485222;31;20124;-71
2022/07/15 04:47:45;;;;;;;2.97;1.12;;;;;;;21.13;59.38;98542.94;4485444;31;20085;-71
2022/07/15 04:52:59;;;;;;;2.28;1.30;;;;;;;21.05;60.15;98540.53;4485574;32;20138;-71
2022/07/15 04:55:26;;;;;;;1.55;1.20;;;;;;;20.95;60.81;98530.28;4485094;32;20118;-71
2022/07/15 04:57:55;;;;;;;2.12;1.00;;;;;;;20.86;61.36;98545.72;4485300;31;20554;-71
2022/07/15 05:00:23;;;;;;;3.22;1.12;;;;;;;20.81;61.78;98548.16;4483631;31;20108;-71
2022/07/15 05:02:50;;;;;;;1.40;1.30;;;;;;;20.83;62.10;98545.28;4484427;31;20108;-71
2022/07/15 05:05:18;;;;;;;2.03;1.60;;;;;;;20.77;62.37;98532.81;4482643;31;20536;-71
2022/07/15 05:07:46;;;;;;;6.72;1.50;;;;;;;20.66;62.70;98537.75;4480461;31;20586;-71
2022/07/15 05:10:13;;;;;;;6.43;1.20;;;;;;;20.51;63.47;98537.94;4479571;31;20156;-71
2022/07/15 05:12:43;;;;;;;1.70;1.30;;;;;;;20.47;63.99;98530.59;4484979;31;20095;-71
2022/07/15 05:15:11;;;;;;;3.33;1.85;;;;;;;20.41;64.68;98544.72;4484469;31;20394;-71
2022/07/15 05:17:40;;;;;;;3.20;1.90;;;;;;;20.38;65.25;98546.78;4483677;32;20115;-71
2022/07/15 05:20:11;;;;;;;3.42;1.90;;;;;;;20.30;65.84;98564.78;4483947;32;20096;-71
2022/07/15 05:22:38;;;;;;;2.87;1.33;;;;;;;20.20;66.94;98568.69;4484981;31;20096;-71
2022/07/15 05:25:06;;;;;;;2.53;1.90;;;;;;;20.12;68.05;98568.87;4484963;31;20160;-71
2022/07/15 05:27:33;;;;;;;2.90;1.87;;;;;;;19.78;70.34;98575.19;4484988;31;20101;-71
2022/07/15 05:30:01;;;;;;;5.93;1.95;;;;;;;19.60;71.74;98579.19;4485161;31;20115;-71
2022/07/15 05:32:30;;;;;;;2.67;1.70;;;;;;;19.51;72.41;98567.09;4485100;31;20475;-71
2022/07/15 05:35:03;;;;;;;3.85;1.65;;;;;;;19.42;73.25;98573.63;4485256;31;20220;-71
2022/07/15 05:37:30;;;;;;;2.67;1.98;;;;;;;19.39;74.09;98579.31;4484168;32;20142;-71
2022/07/15 05:39:58;;;;;;;3.72;1.67;;;;;;;19.25;75.26;98579.25;4484058;32;20100;-71
2022/07/15 05:42:26;;;;;;;2.90;1.87;;;;;;;19.20;75.82;98576.41;4485178;31;20398;-71
2022/07/15 05:44:53;;;;;;;2.00;1.83;;;;;;;19.17;76.29;98590.06;4484615;32;20092;-71
2022/07/15 05:47:21;;;;;;;2.33;1.70;;;;;;;19.07;77.01;98581.63;4484541;31;20118;-71
2022/07/15 05:49:49;;;;;;;4.82;1.87;;;;;;;19.00;77.43;98597.53;4484530;31;20169;-71
2022/07/15 05:52:16;;;;;;;2.17;1.73;;;;;;;19.01;77.77;98593.03;4484865;32;20122;-71
2022/07/15 05:54:44;;;;;;;6.55;1.92;;;;;;;19.03;77.81;98599.81;4484543;32;20111;-71
2022/07/15 05:57:11;;;;;;;3.95;2.00;;;;;;;18.92;78.79;98622.37;4484405;31;20153;-71
2022/07/15 05:59:39;;;;;;;2.92;1.62;;;;;;;18.85;79.48;98613.59;4481405;31;20123;-71
2022/07/15 06:02:07;;;;;;;4.10;2.40;;;;;;;18.78;80.41;98620.66;4477335;32;20466;-71
2022/07/15 06:04:36;;;;;;;2.37;1.85;;;;;;;18.69;81.03;98619.97;4481791;31;20116;-71
2022/07/15 06:07:03;;;;;;;5.28;2.10;;;;;;;18.68;81.13;98604.22;4482127;31;20092;-71
2022/07/15 06:09:30;;;;;;;8.27;2.28;;;;;;;18.60;81.41;98623.78;4482317;32;20548;-71
2022/07/15 06:11:58;;;;;;;4.22;1.67;;;;;;;18.68;80.93;98617.50;4483607;32;20135;-72
2022/07/15 06:14:25;;;;;;;4.32;1.98;;;;;;;18.75;80.55;98616.53;4484799;31;20228;-72
2022/07/15 06:16:56;;;;;;;4.03;1.75;;;;;;;18.71;80.93;98633.03;4485633;31;20180;-72
2022/07/15 06:19:25;;;;;;;3.97;2.00;;;;;;;18.71;80.78;98617.97;4485188;31;20571;-72
2022/07/15 06:21:52;;;;;;;2.58;1.87;;;;;;;18.78;80.64;98626.75;4485953;31;20096;-71
2022/07/15 06:24:19;;;;;;;2.20;1.80;;;;;;;18.83;80.65;98623.53;4486190;31;20100;-71
2022/07/15 06:26:46;;;;;;;2.10;1.90;;;;;;;18.89;80.70;98624.62;4484907;32;20168;-71
2022/07/15 06:29:14;;;;;;;3.45;2.10;;;;;;;18.88;81.03;98625.62;4485989;32;20501;-72
2022/07/15 06:31:41;;;;;;;2.78;1.83;;;;;;;18.87;80.63;98624.00;4482497;32;20747;-72
2022/07/15 06:34:08;;;;;;;3.75;2.00;;;;;;;18.86;80.38;98625.00;4484801;32;20109;-72
2022/07/15 06:36:36;;;;;;;5.28;2.28;;;;;;;18.92;80.35;98618.91;4483683;32;20146;-72
2022/07/15 06:39:03;;;;;;;4.72;2.05;;;;;;;18.90;80.92;98632.38;4485891;31;20092;-72
2022/07/15 06:41:31;;;;;;;6.47;2.12;;;;;;;18.98;80.81;98657.97;4485778;31;20149;-72
2022/07/15 06:44:02;;;;;;;2.47;2.00;;;;;;;18.95;81.07;98674.28;4484971;31;20507;-72
2022/07/15 06:46:33;;;;;;;2.47;2.10;;;;;;;18.97;80.86;98682.87;4485602;31;20464;-71
2022/07/15 06:49:02;;;;;;;2.92;2.12;;;;;;;19.08;80.42;98694.81;4484784;32;20156;-72
2022/07/15 06:51:29;;;;;;;2.47;1.98;;;;;;;19.13;80.35;98708.31;4484476;31;20095;-71
2022/07/15 06:53:57;;;;;;;3.45;2.08;;;;;;;19.11;80.67;98727.09;4486231;31;20450;-71
2022/07/15 06:56:26;;;;;;;2.25;1.80;;;;;;;19.19;80.60;98742.06;4485001;31;20143;-71
2022/07/15 06:58:53;;;;;;;5.60;2.05;;;;;;;19.07;81.27;98756.88;4483855;31;20096;-71
2022/07/15 07:01:20;;;;;;;3.78;2.45;;;;;;;19.13;81.05;98764.88;4484290;31;20617;-71
2022/07/15 07:03:48;;;;;;;4.43;2.08;;;;;;;19.02;81.72;98764.63;4483727;32;20156;-71
2022/07/15 07:06:26;;;;;;;4.85;2.30;;;;;;;19.03;81.97;98766.22;4485283;31;20498;-71
2022/07/15 07:08:54;;;;;;;4.62;2.30;;;;;;;19.03;82.32;98777.69;4485083;31;20150;-71
2022/07/15 07:11:22;;;;;;;3.37;2.70;;;;;;;19.06;82.42;98771.16;4484057;31;20100;-71
2022/07/15 07:13:49;;;;;;;5.05;2.85;;;;;;;18.98;82.94;98766.81;4484859;32;20179;-72
2022/07/15 07:16:17;;;;;;;4.18;2.37;;;;;;;18.85;84.42;98756.91;4483278;32;20100;-71
2022/07/15 07:18:45;;;;;;;2.90;2.55;;;;;;;18.78;86.79;98762.12;4483080;31;20131;-72
2022/07/15 07:21:13;;;;;;;4.12;2.75;;;;;;;18.75;88.09;98767.81;4484685;31;20099;-72
2022/07/15 07:23:42;;;;;;;6.18;3.22;;;;;;;18.66;91.39;98781.41;4483659;31;20111;-72
2022/07/15 07:26:10;;;;;;;5.72;3.05;;;;;;;18.61;92.22;98776.66;4483771;31;20100;-74
2022/07/15 07:28:41;;;;;;;4.95;3.05;;;;;;;18.57;93.32;98781.50;4485757;31;20100;-72
2022/07/15 07:31:10;;;;;;;3.30;3.00;;;;;;;18.49;93.20;98772.88;4483072;32;20095;-72
2022/07/15 07:33:38;;;;;;;7.53;3.50;;;;;;;18.47;94.90;98772.22;4485232;31;20144;-72
2022/07/15 07:36:06;;;;;;;6.65;3.08;;;;;;;18.50;94.51;98761.22;4483605;31;20069;-72
2022/07/15 07:38:35;;;;;;;5.37;3.35;;;;;;;18.43;93.95;98747.91;4484811;31;20092;-72
2022/07/15 07:41:03;;;;;;;5.07;3.20;;;;;;;18.43;93.81;98750.56;4483581;31;20114;-72
2022/07/15 07:43:32;;;;;;;4.62;3.62;;;;;;;18.39;94.86;98755.41;4484221;32;20453;-72
2022/07/15 07:45:59;;;;;;;3.50;3.17;;;;;;;18.38;94.70;98772.34;4483745;32;20149;-72
2022/07/15 07:48:27;;;;;;;4.15;3.30;;;;;;;18.28;95.48;98774.47;4485332;31;20104;-72
2022/07/15 07:50:54;;;;;;;5.10;3.70;;;;;;;18.29;96.40;98751.41;4485222;31;20092;-72
2022/07/15 07:53:22;;;;;;;5.90;3.75;;;;;;;18.31;97.31;98773.28;4485511;32;20440;-72
2022/07/15 07:55:50;;;;;;;5.18;3.53;;;;;;;18.30;95.45;98771.63;4482280;31;20149;-72
2022/07/15 07:58:20;;;;;;;4.80;3.60;;;;;;;18.42;96.48;98770.94;4484739;32;20168;-72
2022/07/15 08:00:47;;;;;;;5.82;3.40;;;;;;;18.31;96.46;98773.28;4471632;31;20101;-72
2022/07/15 08:03:15;;;;;;;4.57;3.65;;;;;;;18.27;95.95;98757.75;4469917;32;20103;-72
2022/07/15 08:05:42;;;;;;;5.35;3.60;;;;;;;18.31;97.34;98763.50;4478894;32;20149;-72
2022/07/15 08:08:15;;;;;;;5.10;3.47;;;;;;;18.29;99.42;98777.94;4485708;31;20116;-72
2022/07/15 08:10:45;;;;;;;5.32;3.42;;;;;;;18.30;99.03;98795.50;4485647;31;20092;-72
2022/07/15 08:13:18;;;;;;;6.18;3.60;;;;;;;18.35;98.03;98806.34;4485241;31;20119;-72
2022/07/15 08:15:45;;;;;;;4.93;3.75;;;;;;;18.50;97.05;98814.28;4485330;31;20529;-71
2022/07/15 08:18:13;;;;;;;4.53;3.95;;;;;;;18.55;96.71;98820.69;4483918;32;20100;-71
2022/07/15 08:20:41;;;;;;;6.78;4.00;;;;;;;18.82;95.17;98839.53;4485211;31;20099;-71
2022/07/15 08:23:09;;;;;;;5.25;4.00;;;;;;;18.91;93.92;98837.59;4484755;32;20156;-71
2022/07/15 08:25:37;;;;;;;8.52;4.12;;;;;;;19.26;91.69;98835.09;4484674;31;20123;-71
2022/07/15 08:28:06;;;;;;;4.87;3.75;;;;;;;19.57;91.63;98829.38;4485433;31;20104;-71
2022/07/15 08:30:34;;;;;;;6.25;3.92;;;;;;;19.68;89.67;98828.84;4485533;32;20130;-72
2022/07/15 08:33:02;;;;;;;4.60;3.75;;;;;;;19.97;89.33;98824.34;4485486;31;20459;-72
2022/07/15 08:35:30;;;;;;;5.85;3.72;;;;;;;20.08;88.87;98838.91;4484491;31;20155;-72
2022/07/15 08:37:57;;;;;;;5.70;4.05;;;;;;;20.03;88.70;98820.91;4485334;32;20172;-71
2022/07/15 08:40:26;;;;;;;5.70;4.10;;;;;;;20.05;87.78;98823.34;4485307;31;20761;-72
2022/07/15 08:42:53;;;;;;;5.32;3.95;;;;;;;20.08;87.70;98808.84;4485243;31;20163;-72
2022/07/15 08:45:20;;;;;;;5.40;3.92;;;;;;;20.11;86.79;98801.28;4485045;31;20541;-72
2022/07/15 08:47:47;;;;;;;4.80;3.80;;;;;;;20.14;88.01;98813.38;4485291;31;20116;-72
2022/07/15 08:50:24;;;;;;;6.18;3.92;;;;;;;20.01;88.28;98843.37;4484288;32;20096;-72
2022/07/15 08:52:51;;;;;;;6.85;3.83;;;;;;;19.91;88.65;98842.91;4485365;31;20084;-71
2022/07/15 08:55:20;;;;;;;4.95;4.12;;;;;;;19.94;89.19;98843.34;4485351;31;20084;-72
2022/07/15 08:57:50;;;;;;;9.35;4.03;;;;;;;19.95;87.60;98847.63;4484012;32;20139;-71
2022/07/15 09:00:20;;;;;;;4.78;4.30;;;;;;;19.92;87.90;98850.69;4474674;31;20114;-72
2022/07/15 09:02:47;;;;;;;7.87;4.40;;;;;;;19.88;87.74;98843.28;4469276;32;20164;-72
2022/07/15 09:05:33;;;;;;;8.27;4.10;;;;;;;20.05;87.79;98833.19;4475653;32;20122;-72
2022/07/15 09:08:06;;;;;;;6.95;5.07;;;;;;;20.28;86.93;98828.38;4485423;31;20146;-72
2022/07/15 09:10:43;;;;;;;6.28;4.62;;;;;;;20.23;88.61;98852.09;4485135;31;20465;-72
2022/07/15 09:13:12;;;;;;;5.35;4.22;;;;;;;20.13;88.06;98871.06;4485061;31;20419;-72
2022/07/15 09:15:40;;;;;;;5.00;4.50;;;;;;;20.11;88.87;98843.03;4484734;31;20442;-72
2022/07/15 09:18:13;;;;;;;7.37;4.20;;;;;;;20.29;88.33;98827.34;4458732;31;842332;-71
2022/07/15 09:20:42;;;;;;;9.25;4.90;;;;;;;20.16;86.82;98814.81;4484870;31;20152;-71
2022/07/15 09:23:11;;;;;;;7.18;5.03;;;;;;;20.02;88.10;98845.84;4484396;31;20151;-71
2022/07/15 09:25:39;;;;;;;6.93;4.78;;;;;;;20.05;90.84;98860.59;4485106;31;20127;-71
2022/07/15 09:28:07;;;;;;;15.50;7.95;;;;;;;20.07;89.30;98869.19;4484821;31;20100;-71
2022/07/15 09:33:35;;;;;;;8.98;6.95;;;;;;;20.21;90.12;98876.22;4484947;31;20140;-71
2022/07/15 09:36:20;;;;;;;7.40;5.50;;;;;;;20.48;91.06;98879.00;4485045;31;20444;-72
2022/07/15 09:38:50;;;;;;;8.60;5.10;;;;;;;20.53;89.01;98887.22;4484589;31;20108;-72
2022/07/15 09:41:50;;;;;;;7.32;5.22;;;;;;;20.76;88.43;98874.59;4483067;31;20619;-71
2022/07/15 09:44:19;;;;;;;6.37;4.80;;;;;;;20.77;86.92;98889.56;4435221;32;20533;-71
2022/07/15 09:46:51;;;;;;;7.05;5.35;;;;;;;20.86;86.18;98899.03;4435305;32;20097;-72
2022/07/15 09:49:24;;;;;;;6.70;4.97;;;;;;;21.07;86.95;98885.56;4435203;32;20131;-72
2022/07/15 09:51:54;;;;;;;6.37;4.68;;;;;;;21.11;84.97;98885.97;4435443;32;20167;-71
2022/07/15 09:54:23;;;;;;;7.82;5.07;;;;;;;21.08;82.85;98887.19;4435311;32;20169;-72
2022/07/15 09:56:51;;;;;;;4.78;4.25;;;;;;;21.21;84.46;98875.75;4435353;32;20151;-72
2022/07/15 09:59:19;;;;;;;7.25;4.90;;;;;;;21.26;82.41;98867.13;4431305;32;20109;-72
2022/07/15 10:01:47;;;;;;;8.23;5.00;;;;;;;21.26;81.46;98859.16;4420039;32;20094;-72
2022/07/15 10:04:17;;;;;;;9.38;4.75;;;;;;;21.22;81.67;98834.72;4420008;32;20089;-72
2022/07/15 10:06:47;;;;;;;6.75;4.05;;;;;;;21.34;80.88;98802.16;4420026;32;20280;-72
2022/07/15 10:09:35;;;;;;;7.47;4.12;;;;;;;21.43;75.54;98798.25;4420021;32;20451;-72
2022/07/15 10:12:08;;;;;;;6.12;4.07;;;;;;;21.61;75.69;98813.63;4420098;32;20296;-72
2022/07/15 10:15:09;;;;;;;4.93;3.67;;;;;;;21.71;77.21;98830.03;4407026;32;20094;-72
2022/07/15 10:17:45;;;;;;;8.18;4.20;;;;;;;21.77;78.30;98839.03;4407270;32;20327;-71
2022/07/15 10:20:24;;;;;;;5.47;4.30;;;;;;;21.41;77.07;98835.78;4448963;32;20162;-71
2022/07/15 10:23:07;;;;;;;5.28;4.28;;;;;;;21.53;77.14;98813.84;4468488;32;20088;-72
2022/07/15 10:25:45;;;;;;;4.75;3.65;;;;;;;21.66;75.60;98789.84;4468810;32;20727;-72
2022/07/15 10:28:15;;;;;;;4.10;3.47;;;;;;;21.86;72.10;98771.09;4467378;32;20116;-72
2022/07/15 10:30:43;;;;;;;4.97;3.62;;;;;;;22.11;69.47;98765.06;4467396;32;20096;-72
2022/07/15 10:33:13;;;;;;;5.05;3.28;;;;;;;22.20;69.32;98769.13;4468509;32;20157;-72
2022/07/15 10:35:48;;;;;;;3.85;2.60;;;;;;;22.26;66.17;98786.97;4468526;32;20152;-72
2022/07/15 10:38:26;;;;;;;3.03;2.40;;;;;;;22.43;62.80;98806.00;4468473;32;20430;-72
2022/07/15 10:41:07;;;;;;;4.50;2.15;;;;;;;22.55;57.14;98814.16;4468473;32;20092;-72
2022/07/15 10:43:50;;;;;;;3.60;1.90;;;;;;;23.00;54.98;98829.31;4468326;32;20520;-72
2022/07/15 10:46:20;;;;;;;3.33;1.90;;;;;;;23.47;50.37;98829.78;4468244;32;20085;-72
2022/07/15 10:49:00;;;;;;;3.25;1.98;;;;;;;23.62;50.05;98832.09;4468206;32;20076;-72
2022/07/15 10:51:36;;;;;;;3.53;1.80;;;;;;;23.84;47.59;98835.16;4468509;32;20093;-72
2022/07/15 10:54:32;;;;;;;6.25;1.85;;;;;;;24.19;44.40;98818.53;4468255;32;20639;-72
2022/07/15 10:57:00;;;;;;;2.92;1.67;;;;;;;24.25;43.04;98823.00;4468079;32;20144;-71
2022/07/15 10:59:35;;;;;;;2.83;1.40;;;;;;;24.43;42.72;98821.34;4474538;32;20130;-71
2022/07/15 11:02:03;;;;;;;2.95;1.60;;;;;;;24.25;43.65;98831.03;4486116;32;20102;-72
2022/07/15 11:04:32;;;;;;;4.30;1.50;;;;;;;24.32;43.05;98820.25;4485814;31;20096;-72
2022/07/15 11:07:02;;;;;;;4.32;1.60;;;;;;;23.96;39.63;98827.25;4486022;31;20092;-72
2022/07/15 11:09:53;;;;;;;4.20;1.60;;;;;;;23.86;40.12;98830.44;4485744;31;20533;-72
2022/07/15 11:12:29;;;;;;;2.97;1.40;;;;;;;24.06;38.76;98826.75;4485911;32;20544;-72
2022/07/15 11:15:13;;;;;;;3.37;1.65;;;;;;;24.26;40.34;98821.94;4485557;31;20088;-72
2022/07/15 11:17:46;;;;;;;2.00;1.45;;;;;;;24.44;39.48;98822.97;4486153;31;20440;-72
2022/07/15 11:20:19;;;;;;;3.12;2.08;;;;;;;24.52;39.38;98825.31;4485712;31;20095;-71
2022/07/15 11:22:48;;;;;;;5.75;2.05;;;;;;;24.83;38.62;98828.88;4485946;31;20088;-72
2022/07/15 11:25:21;;;;;;;2.42;1.70;;;;;;;24.52;37.20;98825.31;4485909;31;20068;-71
2022/07/15 11:28:17;;;;;;;3.65;1.90;;;;;;;24.90;37.56;98834.13;4485884;31;20104;-72
2022/07/15 11:30:53;;;;;;;6.82;1.90;;;;;;;24.86;37.21;98820.37;4484900;32;20559;-72
2022/07/15 11:33:26;;;;;;;2.12;1.77;;;;;;;25.22;36.67;98821.22;4485827;32;20144;-72
2022/07/15 11:35:55;;;;;;;2.30;1.80;;;;;;;25.46;37.00;98823.97;4485832;31;20426;-72
2022/07/15 11:38:31;;;;;;;3.37;1.70;;;;;;;25.98;34.97;98818.72;4485709;32;20118;-71
2022/07/15 11:46:52;;;;;;;4.70;1.75;;;;;;;25.62;33.78;98817.91;4485987;31;20088;-72
2022/07/15 11:49:42;;;;;;;2.92;1.58;;;;;;;25.16;33.56;98822.16;4485582;31;20114;-72
2022/07/15 11:52:13;;;;;;;6.40;2.00;;;;;;;25.21;34.01;98800.84;4485799;31;20457;-71
2022/07/15 11:54:40;;;;;;;5.37;1.87;;;;;;;25.15;34.30;98812.50;4484204;32;20097;-71
2022/07/15 11:57:10;;;;;;;3.37;1.58;;;;;;;24.97;34.77;98808.03;4485678;31;20461;-71